Time;durP1;ratioP1;P1;durP2;ratioP2;P2;SDS_P1;SDS_P2;PMS_P1;PMS_P2;Temp;Humidity;BMP_temperature;BMP_pressure;BME280_temperature;BME280_humidity;BME280_pressure;Samples;Min_cycle;Max_cycle;Signal;HPM_P1;HPM_P2
2020/12/01 00:00:49;;;;;;;34.70;20.25;;;;;;;-1.66;78.81;99986.97;1725689;82;22211;-62
2020/12/01 00:03:18;;;;;;;35.80;20.40;;;;;;;-1.69;78.90;99989.39;1690743;84;21169;-61
2020/12/01 00:05:47;;;;;;;36.13;20.45;;;;;;;-1.74;79.04;99993.02;1719696;83;20994;-61
2020/12/01 00:08:15;;;;;;;32.53;18.98;;;;;;;-1.77;79.15;99981.61;1724424;82;21582;-61
2020/12/01 00:10:44;;;;;;;34.67;19.55;;;;;;;-1.79;79.26;99984.52;1727233;83;21480;-60
2020/12/01 00:13:14;;;;;;;34.40;19.35;;;;;;;-1.81;79.38;99993.88;1727953;82;21285;-60
2020/12/01 00:15:42;;;;;;;35.65;19.92;;;;;;;-1.80;79.49;99994.37;1693544;84;21893;-60
2020/12/01 00:18:11;;;;;;;35.95;21.48;;;;;;;-1.82;79.61;99986.53;1717431;82;20970;-61
2020/12/01 00:20:39;;;;;;;33.50;20.30;;;;;;;-1.86;79.68;99987.56;1693399;84;21488;-62
2020/12/01 00:23:09;;;;;;;37.20;21.17;;;;;;;-1.88;79.78;99994.34;1663189;84;21081;-62
2020/12/01 00:25:37;;;;;;;35.88;20.50;;;;;;;-1.89;79.87;99992.16;1687158;84;21826;-62
2020/12/01 00:28:06;;;;;;;33.15;19.20;;;;;;;-1.88;79.98;99990.06;1687011;84;21141;-62
2020/12/01 00:30:34;;;;;;;34.50;19.37;;;;;;;-1.87;80.04;99990.95;1685886;84;21121;-62
2020/12/01 00:33:03;;;;;;;36.17;19.92;;;;;;;-1.87;80.12;99990.55;1658482;86;21113;-62
2020/12/01 00:35:32;;;;;;;37.93;20.43;;;;;;;-1.85;80.21;99993.23;1686423;84;21121;-62
2020/12/01 00:38:00;;;;;;;34.98;19.95;;;;;;;-1.85;80.29;99989.34;1663411;86;22406;-62
2020/12/01 00:40:29;;;;;;;37.17;20.30;;;;;;;-1.85;80.34;99992.83;1687149;84;21205;-62
2020/12/01 00:42:57;;;;;;;33.55;19.52;;;;;;;-1.86;80.40;99998.80;1686382;85;21145;-62
2020/12/01 00:45:26;;;;;;;34.43;19.70;;;;;;;-1.85;80.43;99992.83;1676052;85;21584;-62
2020/12/01 00:47:55;;;;;;;35.60;19.20;;;;;;;-1.84;80.50;99995.89;1682512;84;21193;-62
2020/12/01 00:50:24;;;;;;;36.65;20.88;;;;;;;-1.83;80.51;99998.97;1658616;86;22710;-62
2020/12/01 00:52:53;;;;;;;35.17;20.12;;;;;;;-1.84;80.54;99999.77;1675752;84;21111;-62
2020/12/01 00:55:22;;;;;;;32.00;18.77;;;;;;;-1.82;80.54;100005.03;1659173;85;21098;-62
2020/12/01 00:57:51;;;;;;;32.50;19.48;;;;;;;-1.84;80.53;100007.53;1673330;85;21502;-62
2020/12/01 01:00:23;;;;;;;36.25;20.10;;;;;;;-1.83;80.56;100004.55;1681311;84;21109;-62
2020/12/01 01:03:01;;;;;;;33.58;19.60;;;;;;;-1.81;80.57;100001.24;1841766;77;22862;-61
2020/12/01 01:05:29;;;;;;;35.80;19.27;;;;;;;-1.85;80.61;99998.39;1787397;79;22643;-61
2020/12/01 01:07:58;;;;;;;34.13;19.60;;;;;;;-1.86;80.62;99997.91;1815763;78;22339;-61
2020/12/01 01:10:29;;;;;;;32.55;18.85;;;;;;;-1.84;80.64;99996.30;1815183;78;21528;-61
2020/12/01 01:13:00;;;;;;;30.57;18.55;;;;;;;-1.85;80.62;99999.28;1802309;78;20947;-61
2020/12/01 01:15:33;;;;;;;32.88;19.20;;;;;;;-1.83;80.63;99999.38;1781171;80;20927;-61
2020/12/01 01:18:01;;;;;;;33.55;20.05;;;;;;;-1.83;80.65;99998.08;1755908;80;21174;-61
2020/12/01 01:20:30;;;;;;;32.23;18.48;;;;;;;-1.85;80.63;99998.00;1750010;80;21372;-62
2020/12/01 01:23:00;;;;;;;32.98;20.43;;;;;;;-1.84;80.65;99998.88;1751019;80;21497;-61
2020/12/01 01:25:29;;;;;;;36.10;20.20;;;;;;;-1.86;80.63;100000.09;1735749;82;20964;-61
2020/12/01 01:27:58;;;;;;;36.45;19.87;;;;;;;-1.87;80.68;99997.02;1750401;82;21124;-61
2020/12/01 01:30:26;;;;;;;36.35;20.57;;;;;;;-1.87;80.68;99994.84;1770648;80;21137;-61
2020/12/01 01:32:55;;;;;;;32.17;18.98;;;;;;;-1.88;80.70;99984.00;1781439;80;22284;-61
2020/12/01 01:35:24;;;;;;;32.80;19.92;;;;;;;-1.90;80.72;99990.34;1764667;80;21590;-61
2020/12/01 01:37:53;;;;;;;33.85;19.00;;;;;;;-1.90;80.76;99987.76;1717137;82;20911;-61
2020/12/01 01:40:26;;;;;;;34.10;19.90;;;;;;;-1.89;80.77;99997.34;1759613;80;21494;-61
2020/12/01 01:42:55;;;;;;;32.83;19.25;;;;;;;-1.89;80.79;99992.16;1780400;80;21006;-61
2020/12/01 01:45:46;;;;;;;34.13;20.40;;;;;;;-1.91;80.81;99994.63;1770268;80;21024;-61
2020/12/01 01:48:33;;;;;;;32.75;19.07;;;;;;;-1.92;80.83;99997.12;1732069;82;20956;-62
2020/12/01 01:51:14;;;;;;;34.33;19.32;;;;;;;-1.92;80.89;99994.54;1750413;81;21456;-62
2020/12/01 01:53:51;;;;;;;34.73;20.35;;;;;;;-1.90;80.94;99996.41;1755512;80;20904;-60
2020/12/01 01:56:27;;;;;;;34.92;20.10;;;;;;;-1.86;81.01;99992.73;1748101;80;21004;-61
2020/12/01 01:58:55;;;;;;;32.75;19.40;;;;;;;-1.84;81.04;99997.19;1746488;80;21205;-61
2020/12/01 02:01:25;;;;;;;31.25;18.82;;;;;;;-1.83;81.02;99988.63;1695631;82;21025;-61
2020/12/01 02:03:59;;;;;;;33.70;18.98;;;;;;;-1.81;81.01;99989.60;1754221;80;21057;-61
2020/12/01 02:06:48;;;;;;;33.13;18.57;;;;;;;-1.82;81.02;99993.39;1739616;81;21077;-62
2020/12/01 02:09:33;;;;;;;31.73;18.70;;;;;;;-1.81;80.98;99992.59;1754201;80;21083;-61
2020/12/01 02:12:03;;;;;;;31.40;18.40;;;;;;;-1.82;80.99;99991.70;1736351;81;22101;-61
2020/12/01 02:14:36;;;;;;;32.38;18.92;;;;;;;-1.82;80.98;99992.10;1729950;81;20950;-61
2020/12/01 02:17:31;;;;;;;31.60;18.77;;;;;;;-1.84;80.95;99995.00;1721782;81;21597;-61
2020/12/01 02:20:14;;;;;;;31.60;18.95;;;;;;;-1.85;80.95;99993.23;1728342;83;21080;-61
2020/12/01 02:22:47;;;;;;;31.23;18.45;;;;;;;-1.85;80.96;99994.52;1748525;81;20938;-61
2020/12/01 02:25:17;;;;;;;33.05;17.92;;;;;;;-1.87;80.91;99992.25;1758617;81;22527;-61
2020/12/01 02:27:56;;;;;;;32.83;17.25;;;;;;;-1.90;80.92;99989.95;1757716;81;20993;-61
2020/12/01 02:30:24;;;;;;;33.90;18.10;;;;;;;-1.87;80.94;99996.13;1758521;81;20918;-61
2020/12/01 02:32:53;;;;;;;33.73;18.17;;;;;;;-1.87;80.97;99989.26;1743648;81;20930;-61
2020/12/01 02:35:21;;;;;;;28.70;17.57;;;;;;;-1.83;80.97;99994.20;1758946;81;21485;-61
2020/12/01 02:37:50;;;;;;;28.27;17.73;;;;;;;-1.81;80.96;99981.84;1741891;81;21380;-62
2020/12/01 02:40:18;;;;;;;30.30;16.60;;;;;;;-1.79;80.97;99984.52;1755538;80;20942;-61
2020/12/01 02:42:52;;;;;;;30.82;18.00;;;;;;;-1.77;80.94;99990.66;1772424;80;21537;-61
2020/12/01 02:45:21;;;;;;;28.75;16.37;;;;;;;-1.74;80.93;99993.42;1750485;80;21498;-61
2020/12/01 02:47:49;;;;;;;29.37;16.45;;;;;;;-1.69;80.94;99995.45;1752603;80;21505;-61
2020/12/01 02:50:18;;;;;;;31.33;16.93;;;;;;;-1.68;80.91;99989.48;1750446;80;21451;-61
2020/12/01 02:52:49;;;;;;;26.45;15.35;;;;;;;-1.66;80.89;99992.15;1750796;80;20954;-61
2020/12/01 02:55:17;;;;;;;25.43;15.68;;;;;;;-1.63;80.87;99998.78;1780663;80;20910;-60
2020/12/01 02:57:46;;;;;;;26.75;14.50;;;;;;;-1.60;80.80;99996.37;1780986;80;20935;-61
2020/12/01 03:00:14;;;;;;;23.83;14.35;;;;;;;-1.58;80.75;99981.81;1778033;80;21533;-61
2020/12/01 03:02:42;;;;;;;22.48;13.95;;;;;;;-1.55;80.67;99987.16;1743800;80;21630;-61
2020/12/01 03:05:10;;;;;;;24.18;15.13;;;;;;;-1.54;80.57;99988.05;1757175;81;21494;-61
2020/12/01 03:07:38;;;;;;;22.10;14.30;;;;;;;-1.54;80.51;99981.18;1743830;80;20923;-61
2020/12/01 03:10:07;;;;;;;22.90;14.23;;;;;;;-1.51;80.45;99986.92;1742027;81;20947;-61
2020/12/01 03:12:35;;;;;;;23.47;14.50;;;;;;;-1.48;80.40;99990.57;1759522;81;20946;-61
2020/12/01 03:15:09;;;;;;;23.40;13.75;;;;;;;-1.48;80.33;99980.22;1755975;80;21535;-61
2020/12/01 03:17:33;;;;;;;22.10;13.95;;;;;;;-1.48;80.26;99988.38;1756804;80;20998;-61
2020/12/01 03:20:01;;;;;;;21.82;13.90;;;;;;;-1.48;80.21;99985.39;1752633;81;20904;-61
2020/12/01 03:22:30;;;;;;;22.37;13.95;;;;;;;-1.47;80.15;99980.70;1732589;81;20961;-61
2020/12/01 03:25:00;;;;;;;18.70;12.20;;;;;;;-1.46;80.07;99982.89;1735066;82;20955;-61
2020/12/01 03:27:28;;;;;;;19.73;12.13;;;;;;;-1.47;80.04;99980.70;1807681;79;21344;-61
2020/12/01 03:29:56;;;;;;;21.30;13.22;;;;;;;-1.45;80.01;99986.85;1773957;80;21505;-63
2020/12/01 03:32:25;;;;;;;20.40;13.13;;;;;;;-1.44;79.97;99986.05;1773530;79;20950;-62
2020/12/01 03:34:53;;;;;;;19.60;12.33;;;;;;;-1.42;79.93;99987.05;1770613;79;20932;-62
2020/12/01 03:37:21;;;;;;;17.07;11.83;;;;;;;-1.40;79.85;99987.14;1792405;79;20923;-63
2020/12/01 03:39:50;;;;;;;18.67;11.90;;;;;;;-1.37;79.80;99986.01;1780976;79;21193;-61
2020/12/01 03:42:18;;;;;;;18.77;11.25;;;;;;;-1.36;79.74;99992.56;1739301;81;21026;-62
2020/12/01 03:44:48;;;;;;;15.63;10.45;;;;;;;-1.33;79.65;99987.95;1751292;80;20963;-62
2020/12/01 03:47:16;;;;;;;20.08;11.65;;;;;;;-1.30;79.54;99990.30;1741223;81;21603;-62
2020/12/01 03:49:45;;;;;;;16.15;10.43;;;;;;;-1.29;79.39;100001.14;1734503;82;21087;-62
2020/12/01 03:52:13;;;;;;;15.80;11.10;;;;;;;-1.28;79.28;99997.75;1754888;81;21523;-62
2020/12/01 03:54:42;;;;;;;16.05;10.32;;;;;;;-1.28;79.09;99989.98;1746203;81;20960;-62
2020/12/01 03:57:10;;;;;;;14.23;9.75;;;;;;;-1.27;78.93;99996.94;1750687;80;20895;-61
2020/12/01 03:59:38;;;;;;;14.50;10.10;;;;;;;-1.27;78.74;99995.64;1740753;81;21119;-62
2020/12/01 04:02:06;;;;;;;20.12;10.95;;;;;;;-1.27;78.61;100005.11;1748615;81;21085;-62
2020/12/01 04:04:35;;;;;;;15.08;10.08;;;;;;;-1.27;78.52;100003.81;1758518;80;22233;-63
2020/12/01 04:07:03;;;;;;;15.15;10.13;;;;;;;-1.25;78.44;100011.26;1722502;82;21509;-62
2020/12/01 04:09:33;;;;;;;15.38;10.25;;;;;;;-1.21;78.29;100012.31;1744015;81;20955;-62
2020/12/01 04:12:01;;;;;;;14.58;9.40;;;;;;;-1.21;78.16;100000.66;1743322;81;21490;-62
2020/12/01 04:14:29;;;;;;;15.35;9.88;;;;;;;-1.21;78.06;100000.27;1727080;82;20972;-62
2020/12/01 04:16:57;;;;;;;12.35;8.63;;;;;;;-1.22;77.89;99997.19;1783434;78;21367;-62
2020/12/01 04:19:25;;;;;;;16.32;9.95;;;;;;;-1.25;77.71;99990.95;1789579;78;21505;-62
2020/12/01 04:21:53;;;;;;;15.55;9.60;;;;;;;-1.29;77.60;100001.14;1783408;79;20989;-62
2020/12/01 04:24:21;;;;;;;14.95;9.80;;;;;;;-1.33;77.54;99997.91;1773034;79;20939;-64
2020/12/01 04:26:50;;;;;;;13.62;9.60;;;;;;;-1.33;77.44;99999.60;1782136;79;21011;-62
2020/12/01 04:29:18;;;;;;;14.78;9.58;;;;;;;-1.37;77.31;99989.89;1795752;79;21202;-62
2020/12/01 04:31:46;;;;;;;13.80;9.50;;;;;;;-1.39;77.24;99992.39;1782588;79;20963;-62
2020/12/01 04:34:15;;;;;;;14.10;9.53;;;;;;;-1.40;77.17;99991.02;1765269;81;20958;-62
2020/12/01 04:36:44;;;;;;;13.75;9.10;;;;;;;-1.41;77.10;99982.77;1763394;80;20951;-62
2020/12/01 04:39:12;;;;;;;14.80;10.15;;;;;;;-1.42;77.06;99988.72;1749637;80;20943;-61
2020/12/01 04:41:40;;;;;;;13.35;9.20;;;;;;;-1.41;77.01;99983.66;1757919;81;21245;-62
2020/12/01 04:44:17;;;;;;;14.83;10.00;;;;;;;-1.43;76.88;99984.34;1741106;81;21521;-61
2020/12/01 04:46:46;;;;;;;14.87;9.05;;;;;;;-1.43;76.82;99993.41;1698375;83;20999;-61
2020/12/01 04:49:28;;;;;;;14.15;9.58;;;;;;;-1.46;76.74;99991.54;1700856;83;20958;-62
2020/12/01 04:52:29;;;;;;;13.85;9.28;;;;;;;-1.41;76.66;99987.55;1825294;77;22729;-61
2020/12/01 04:55:14;;;;;;;14.85;9.58;;;;;;;-1.47;76.61;99985.87;1794934;78;21067;-61
2020/12/01 04:57:51;;;;;;;14.25;9.00;;;;;;;-1.47;76.53;99987.58;1693971;83;21933;-61
2020/12/01 05:00:47;;;;;;;14.87;10.28;;;;;;;-1.50;76.44;99983.13;1698768;81;21590;-60
2020/12/01 05:03:27;;;;;;;13.95;9.90;;;;;;;-1.50;76.40;99978.36;1680077;84;21471;-60
2020/12/01 05:09:26;;;;;;;13.68;8.78;;;;;;;-1.53;76.30;99982.95;1664751;85;20970;-60
2020/12/01 05:12:37;;;;;;;13.08;9.70;;;;;;;-1.49;76.32;99970.67;1824065;77;22692;-61
2020/12/01 05:15:21;;;;;;;14.35;8.48;;;;;;;-1.54;76.21;99976.00;1697574;82;21595;-63
2020/12/01 05:18:07;;;;;;;12.47;8.68;;;;;;;-1.54;76.20;99983.77;1679518;82;21218;-62
2020/12/01 05:20:43;;;;;;;12.50;8.73;;;;;;;-1.53;76.19;99976.49;1686774;82;21536;-63
2020/12/01 05:23:12;;;;;;;14.15;9.03;;;;;;;-1.51;76.17;99972.70;1715429;82;21042;-61
2020/12/01 05:25:40;;;;;;;12.30;8.23;;;;;;;-1.52;76.13;99973.50;1686600;82;21535;-61
2020/12/01 05:31:03;;;;;;;10.95;8.10;;;;;;;-1.46;76.10;99979.01;1832014;78;22709;-61
2020/12/01 05:33:33;;;;;;;11.12;7.67;;;;;;;-1.48;76.05;99980.63;1810159;78;21532;-61
2020/12/01 14:34:39;;;;;;;12.40;9.43;;;;;;;-0.13;80.21;99871.50;1830646;78;23380;-62
2020/12/01 14:37:14;;;;;;;13.75;9.95;;;;;;;-0.21;80.22;99872.44;1738893;81;21062;-61
2020/12/01 14:39:47;;;;;;;12.95;10.10;;;;;;;-0.23;80.25;99873.17;1733256;82;21427;-61
2020/12/01 14:42:18;;;;;;;13.00;9.88;;;;;;;-0.24;80.25;99873.98;1791204;78;21525;-60
2020/12/01 14:44:47;;;;;;;11.85;9.73;;;;;;;-0.26;80.27;99876.51;1740624;81;21078;-61
2020/12/01 14:47:29;;;;;;;13.58;10.18;;;;;;;-0.27;80.33;99874.73;1740118;81;21584;-61
2020/12/01 14:50:32;;;;;;;12.87;10.03;;;;;;;-0.27;80.36;99879.03;1737567;82;21064;-61
2020/12/01 14:53:09;;;;;;;;;;;;;;;-0.27;80.46;99877.73;1747782;80;21400;-62
2020/12/01 14:56:10;;;;;;;16.25;10.78;;;;;;;-0.22;80.58;99880.14;1760225;80;21179;-63
2020/12/01 14:59:24;;;;;;;15.78;10.60;;;;;;;-0.19;80.64;99885.06;1738322;81;21089;-64
2020/12/01 15:01:58;;;;;;;;;;;;;;;-0.15;80.70;99888.28;1711426;83;21147;-63
2020/12/01 15:05:04;;;;;;;17.25;12.45;;;;;;;-0.11;80.72;99886.72;1717509;83;20263;-64
2020/12/01 15:08:14;;;;;;;15.15;11.68;;;;;;;-0.08;80.75;99886.87;1710092;83;21633;-62
2020/12/01 15:11:22;;;;;;;19.50;12.28;;;;;;;-0.03;80.68;99882.78;1840042;77;22717;-63
2020/12/01 15:13:51;;;;;;;16.62;11.12;;;;;;;-0.09;80.65;99887.69;1806712;79;20990;-61
2020/12/01 15:16:27;;;;;;;15.35;11.03;;;;;;;-0.12;80.67;99887.54;1805538;78;21599;-66
2020/12/01 15:18:56;;;;;;;16.42;11.15;;;;;;;-0.11;80.72;99888.02;1769066;80;21108;-63
2020/12/01 15:21:45;;;;;;;17.50;11.20;;;;;;;-0.11;80.75;99882.83;1748098;82;20962;-63
2020/12/01 15:24:17;;;;;;;16.77;11.43;;;;;;;-0.13;80.74;99889.66;1748783;82;21576;-63
2020/12/01 15:26:45;;;;;;;16.15;11.70;;;;;;;-0.15;80.76;99883.50;1743161;80;21005;-63
2020/12/01 15:29:14;;;;;;;14.78;10.63;;;;;;;-0.18;80.82;99885.95;1735654;82;22066;-63
2020/12/01 15:31:43;;;;;;;15.90;11.95;;;;;;;-0.17;80.85;99889.02;1756802;81;21072;-63
2020/12/01 15:34:13;;;;;;;16.17;12.10;;;;;;;-0.17;80.87;99885.13;1765108;81;21013;-62
2020/12/01 15:36:42;;;;;;;14.40;10.82;;;;;;;-0.18;80.87;99889.84;1709759;81;21619;-63
2020/12/01 15:39:11;;;;;;;18.82;12.23;;;;;;;-0.19;80.87;99889.36;1765166;81;20942;-62
2020/12/01 15:41:39;;;;;;;16.70;12.18;;;;;;;-0.20;80.96;99883.69;1763876;81;21411;-64
2020/12/01 15:44:08;;;;;;;18.35;12.07;;;;;;;-0.19;81.03;99882.47;1749719;81;21645;-62
2020/12/01 15:46:39;;;;;;;19.65;13.13;;;;;;;-0.18;81.01;99888.14;1748276;81;21498;-63
2020/12/01 15:49:09;;;;;;;20.95;12.55;;;;;;;-0.16;81.06;99884.31;1747096;81;21191;-64
2020/12/01 15:51:48;;;;;;;21.33;13.10;;;;;;;-0.15;81.10;99884.39;1747291;81;20922;-62
2020/12/01 15:54:52;;;;;;;19.65;14.18;;;;;;;-0.15;81.11;99882.20;1740592;81;21377;-63
2020/12/01 15:57:35;;;;;;;23.25;14.47;;;;;;;-0.16;81.13;99872.24;1746783;81;21606;-62
2020/12/01 16:00:46;;;;;;;21.00;14.20;;;;;;;-0.17;81.19;99870.47;1747327;81;20998;-62
2020/12/01 16:04:01;;;;;;;15.58;11.03;;;;;;;-0.19;81.26;99868.61;1742097;81;21151;-63
2020/12/01 16:07:00;;;;;;;15.32;11.28;;;;;;;-0.22;81.33;99866.77;1744218;81;21618;-63
2020/12/01 16:09:53;;;;;;;14.03;10.45;;;;;;;-0.24;81.43;99867.09;1654199;85;21357;-66
2020/12/01 16:12:32;;;;;;;14.68;10.53;;;;;;;-0.27;81.47;99866.95;1652980;86;21793;-69
2020/12/01 16:15:27;;;;;;;12.78;10.10;;;;;;;-0.30;81.57;99864.22;1654714;85;21135;-64
2020/12/01 16:18:01;;;;;;;14.95;11.43;;;;;;;-0.32;81.66;99864.55;1670946;83;21134;-61
2020/12/01 16:20:45;;;;;;;13.58;10.23;;;;;;;-0.33;81.80;99864.06;1726368;81;21101;-62
2020/12/01 16:23:14;;;;;;;15.18;11.45;;;;;;;-0.34;81.87;99864.88;1711897;82;21387;-63
2020/12/01 16:25:44;;;;;;;15.95;11.12;;;;;;;-0.34;81.96;99864.47;1715026;82;20987;-62
2020/12/01 16:28:24;;;;;;;16.95;12.03;;;;;;;-0.33;82.02;99864.06;1715265;82;20987;-63
2020/12/01 16:31:06;;;;;;;17.42;11.30;;;;;;;-0.27;82.09;99866.95;1837930;78;22752;-61
2020/12/01 16:33:35;;;;;;;16.42;11.88;;;;;;;-0.31;82.13;99871.51;1804462;78;20927;-62
2020/12/01 16:36:06;;;;;;;18.73;12.68;;;;;;;-0.28;82.17;99875.55;1809508;78;21349;-62
2020/12/01 16:38:59;;;;;;;20.48;12.70;;;;;;;-0.27;82.25;99876.03;1809340;78;21093;-62
2020/12/01 16:41:28;;;;;;;15.70;11.28;;;;;;;-0.25;82.30;99877.39;1807004;79;21057;-65
2020/12/01 16:44:20;;;;;;;16.37;12.20;;;;;;;-0.26;82.38;99882.98;1809726;78;21053;-65
2020/12/01 16:47:19;;;;;;;16.42;11.00;;;;;;;-0.24;82.43;99878.77;1808281;78;20982;-62
2020/12/01 16:50:15;;;;;;;15.83;11.22;;;;;;;-0.20;82.51;99890.17;1739875;82;22006;-63
2020/12/01 16:53:07;;;;;;;19.87;12.03;;;;;;;-0.19;82.55;99895.44;1706993;82;21576;-62
2020/12/01 16:56:03;;;;;;;18.50;11.53;;;;;;;-0.17;82.58;99891.61;1783624;79;21753;-63
2020/12/01 16:58:59;;;;;;;12.95;10.15;;;;;;;-0.16;82.61;99890.80;1768396;80;21111;-63
2020/12/01 17:01:45;;;;;;;13.43;10.90;;;;;;;-0.13;82.67;99897.02;1784866;79;21030;-62
2020/12/01 17:05:06;;;;;;;15.80;11.28;;;;;;;-0.10;82.63;99898.47;1750321;81;21209;-62
2020/12/01 17:07:37;;;;;;;15.30;10.95;;;;;;;-0.10;82.62;99897.17;1733310;81;20968;-62
2020/12/01 17:10:30;;;;;;;15.78;10.80;;;;;;;-0.08;82.59;99903.73;1770038;80;20955;-64
2020/12/01 17:13:46;;;;;;;14.63;10.55;;;;;;;-0.01;82.59;99899.31;1831791;78;23240;-68
2020/12/01 17:16:48;;;;;;;14.80;9.93;;;;;;;-0.05;82.57;99899.98;1790992;79;21005;-65
2020/12/01 17:19:17;;;;;;;12.78;10.13;;;;;;;-0.04;82.54;99895.27;1809255;77;21404;-65
2020/12/01 17:21:48;;;;;;;14.23;10.72;;;;;;;-0.06;82.50;99896.50;1743378;81;21018;-64
2020/12/01 17:24:18;;;;;;;15.68;10.35;;;;;;;-0.08;82.51;99892.94;1739640;81;20954;-64
2020/12/01 17:26:50;;;;;;;13.03;10.00;;;;;;;-0.06;82.53;99891.72;1758824;80;20931;-62
2020/12/01 17:29:25;;;;;;;13.13;9.38;;;;;;;-0.06;82.53;99887.83;1768999;80;20907;-62
2020/12/01 17:32:02;;;;;;;14.30;10.10;;;;;;;-0.04;82.50;99890.97;1738311;81;21469;-61
2020/12/01 17:34:42;;;;;;;13.53;10.60;;;;;;;-0.06;82.46;99891.31;1735424;82;21655;-61
2020/12/01 17:38:05;;;;;;;12.60;8.58;;;;;;;-0.01;82.48;99892.42;1821217;76;21872;-62
2020/12/01 17:40:45;;;;;;;13.15;9.43;;;;;;;-0.06;82.44;99893.91;1729862;81;21573;-62
2020/12/01 17:43:34;;;;;;;12.90;9.58;;;;;;;-0.06;82.45;99892.61;1726458;82;21383;-62
2020/12/01 17:46:25;;;;;;;11.95;9.35;;;;;;;-0.04;82.45;99894.86;1726496;82;21006;-62
2020/12/01 17:49:01;;;;;;;12.65;9.50;;;;;;;-0.04;82.46;99885.79;1663507;83;21078;-63
2020/12/01 17:51:40;;;;;;;14.87;10.10;;;;;;;-0.05;82.44;99887.91;1687187;83;20993;-62
2020/12/01 17:54:22;;;;;;;13.32;10.45;;;;;;;-0.01;82.53;99894.13;1673457;83;21538;-62
2020/12/01 17:56:55;;;;;;;12.68;9.90;;;;;;;-0.01;82.50;99885.94;1663940;84;21554;-62
2020/12/01 17:59:26;;;;;;;11.00;9.15;;;;;;;0.02;82.47;99892.11;1670517;83;20987;-65
2020/12/01 18:01:56;;;;;;;13.45;9.88;;;;;;;0.02;82.42;99890.41;1664692;84;21021;-62
2020/12/01 18:04:25;;;;;;;13.05;9.73;;;;;;;0.05;82.41;99894.85;1677873;84;21018;-62
2020/12/01 18:06:59;;;;;;;11.40;8.98;;;;;;;0.04;82.44;99900.45;1715299;83;21107;-62
2020/12/01 18:09:29;;;;;;;11.93;9.55;;;;;;;0.07;82.43;99897.11;1713701;83;22245;-62
2020/12/01 18:12:19;;;;;;;10.93;9.05;;;;;;;0.08;82.39;99896.30;1718205;83;21019;-64
2020/12/01 18:15:13;;;;;;;12.53;9.80;;;;;;;0.07;82.39;99895.81;1722635;81;21165;-60
2020/12/01 18:18:06;;;;;;;13.25;9.60;;;;;;;0.06;82.40;99893.63;1728102;81;21555;-64
2020/12/01 18:21:19;;;;;;;13.05;10.08;;;;;;;0.08;82.41;99891.99;1814722;78;23641;-61
2020/12/01 18:24:26;;;;;;;13.93;9.88;;;;;;;0.04;82.43;99900.86;1730468;81;20946;-63
2020/12/01 18:27:29;;;;;;;13.60;10.55;;;;;;;0.05;82.49;99893.15;1836619;76;22765;-62
2020/12/01 18:30:14;;;;;;;11.08;9.05;;;;;;;-0.01;82.54;99900.20;1809550;78;20911;-61
2020/12/01 18:33:05;;;;;;;12.73;9.80;;;;;;;-0.02;82.58;99906.20;1802324;78;21409;-63
2020/12/01 18:35:45;;;;;;;11.40;8.80;;;;;;;-0.05;82.62;99904.76;1766099;81;21594;-60
2020/12/01 18:38:19;;;;;;;13.22;10.23;;;;;;;-0.05;82.71;99906.47;1728559;82;20968;-61
2020/12/01 18:40:53;;;;;;;11.43;9.20;;;;;;;-0.06;82.78;99911.17;1724655;82;20951;-63
2020/12/01 18:43:36;;;;;;;12.25;9.70;;;;;;;-0.04;82.87;99913.43;1736692;81;21005;-63
2020/12/01 18:46:08;;;;;;;11.25;9.03;;;;;;;-0.03;82.90;99919.09;1725148;82;22002;-61
2020/12/01 18:48:38;;;;;;;13.08;9.28;;;;;;;-0.03;82.94;99908.31;1724771;82;21145;-61
2020/12/01 18:51:08;;;;;;;11.60;8.75;;;;;;;-0.06;82.93;99908.58;1725307;81;21041;-61
2020/12/01 18:53:39;;;;;;;11.88;8.93;;;;;;;-0.06;82.99;99904.69;1753786;79;21248;-61
2020/12/01 18:56:11;;;;;;;9.95;8.80;;;;;;;-0.03;83.05;99914.80;1732042;82;21612;-62
2020/12/01 18:58:40;;;;;;;10.55;8.93;;;;;;;-0.02;83.10;99910.09;1734107;82;21213;-64
2020/12/01 19:01:16;;;;;;;12.07;9.43;;;;;;;-0.01;83.10;99920.06;1729819;82;21122;-63
2020/12/01 19:03:45;;;;;;;10.35;8.88;;;;;;;0.00;83.11;99916.69;1730848;82;21030;-62
2020/12/01 19:06:16;;;;;;;11.38;9.43;;;;;;;0.02;83.11;99923.23;1725499;82;21164;-62
2020/12/01 19:08:47;;;;;;;12.25;9.60;;;;;;;0.04;83.09;99916.02;1723195;82;21045;-62
2020/12/01 19:11:16;;;;;;;11.12;9.23;;;;;;;0.07;83.12;99916.56;1693691;82;21304;-63
2020/12/01 19:13:49;;;;;;;10.40;8.45;;;;;;;0.08;83.12;99920.94;1748799;81;21077;-62
2020/12/01 19:16:20;;;;;;;9.53;8.33;;;;;;;0.10;83.11;99917.59;1727074;82;21113;-63
2020/12/01 19:18:50;;;;;;;9.13;7.80;;;;;;;0.11;83.04;99923.27;1732033;80;21498;-63
2020/12/01 19:21:21;;;;;;;11.68;9.13;;;;;;;0.11;83.00;99923.67;1734777;82;20926;-64
2020/12/01 19:23:52;;;;;;;10.08;8.48;;;;;;;0.11;82.95;99923.67;1741828;80;21207;-62
2020/12/01 19:26:21;;;;;;;11.63;8.53;;;;;;;0.10;82.92;99924.49;1733652;80;21489;-63
2020/12/01 19:28:52;;;;;;;9.43;8.43;;;;;;;0.10;82.92;99925.37;1728430;82;20934;-63
2020/12/01 19:31:21;;;;;;;10.93;8.95;;;;;;;0.12;82.88;99922.86;1703352;82;21077;-62
2020/12/01 19:33:51;;;;;;;11.43;8.73;;;;;;;0.11;82.92;99921.08;1732321;82;20895;-62
2020/12/01 19:36:21;;;;;;;10.85;8.25;;;;;;;0.13;82.92;99915.56;1728970;82;21416;-62
2020/12/01 19:38:55;;;;;;;11.38;9.63;;;;;;;0.12;82.88;99918.97;1740257;82;20939;-62
2020/12/01 19:41:26;;;;;;;9.15;8.08;;;;;;;0.11;82.83;99920.67;1714631;83;21016;-62
2020/12/01 19:43:55;;;;;;;10.28;8.75;;;;;;;0.11;82.81;99923.67;1714654;83;21575;-62
2020/12/01 19:46:26;;;;;;;11.88;9.30;;;;;;;0.10;82.84;99920.60;1726491;82;21030;-62
2020/12/01 19:49:02;;;;;;;11.93;8.83;;;;;;;0.10;82.87;99919.30;1730198;81;21747;-62
2020/12/01 19:51:31;;;;;;;10.95;9.35;;;;;;;0.11;82.86;99918.48;1743360;82;21496;-62
2020/12/01 19:54:02;;;;;;;12.82;9.65;;;;;;;0.12;82.89;99921.16;1730973;82;21135;-63
2020/12/01 19:56:32;;;;;;;10.80;9.23;;;;;;;0.13;82.90;99920.34;1727473;81;21049;-62
2020/12/01 19:59:04;;;;;;;11.50;9.03;;;;;;;0.16;82.94;99920.89;1729546;82;20978;-62
2020/12/01 20:01:33;;;;;;;9.78;8.43;;;;;;;0.18;82.90;99928.34;1730450;81;21373;-62
2020/12/01 20:04:03;;;;;;;9.25;7.97;;;;;;;0.17;82.85;99922.66;1728300;81;21174;-62
2020/12/01 20:06:32;;;;;;;11.73;9.33;;;;;;;0.16;82.83;99922.19;1727369;81;21572;-62
2020/12/01 20:09:07;;;;;;;9.75;8.48;;;;;;;0.16;82.84;99927.38;1728308;82;21145;-62
2020/12/01 20:11:36;;;;;;;9.85;8.40;;;;;;;0.15;82.86;99923.00;1730385;81;21592;-62
2020/12/01 20:14:06;;;;;;;11.03;8.80;;;;;;;0.13;82.89;99926.83;1730749;81;21193;-62
2020/12/01 20:16:34;;;;;;;10.03;8.25;;;;;;;0.15;82.91;99919.11;1730385;82;21172;-62
2020/12/01 20:19:04;;;;;;;11.12;9.43;;;;;;;0.15;82.93;99929.48;1727705;82;21053;-63
2020/12/01 20:21:33;;;;;;;10.20;9.08;;;;;;;0.15;82.98;99921.30;1727700;82;20935;-61
2020/12/01 20:24:01;;;;;;;10.48;8.55;;;;;;;0.14;82.96;99920.82;1728387;82;20939;-61
2020/12/01 20:26:30;;;;;;;9.53;8.53;;;;;;;0.13;82.98;99921.63;1730239;82;21997;-61
2020/12/01 20:28:59;;;;;;;10.38;8.63;;;;;;;0.15;83.00;99926.48;1728575;82;21144;-62
2020/12/01 20:31:27;;;;;;;10.40;8.85;;;;;;;0.16;83.04;99926.08;1727102;81;21026;-62
2020/12/01 20:33:56;;;;;;;11.53;8.75;;;;;;;0.16;83.05;99920.89;1730772;82;21120;-62
2020/12/01 20:36:48;;;;;;;12.30;8.93;;;;;;;0.15;83.05;99918.70;1727301;82;21169;-62
2020/12/01 20:39:52;;;;;;;10.10;8.83;;;;;;;0.16;83.05;99923.08;1728572;81;22259;-64
2020/12/01 20:42:24;;;;;;;10.55;9.00;;;;;;;0.17;83.04;99930.05;1672196;83;21563;-57
2020/12/01 20:44:53;;;;;;;;;;;;;;;0.16;83.06;99928.27;1726591;81;21089;-63
2020/12/01 20:47:22;;;;;;;10.15;8.43;;;;;;;0.16;83.10;99922.19;1725439;82;20157;-61
2020/12/01 20:49:51;;;;;;;10.70;8.95;;;;;;;0.16;83.17;99927.38;1721602;82;21632;-61
2020/12/01 20:52:20;;;;;;;11.55;9.00;;;;;;;0.20;83.21;99930.19;1727215;82;22691;-61
2020/12/01 20:54:48;;;;;;;9.28;8.23;;;;;;;0.20;83.18;99928.89;1721260;82;21112;-61
2020/12/01 20:57:17;;;;;;;11.08;9.08;;;;;;;0.20;83.19;99929.30;1633394;85;21616;-62
2020/12/01 20:59:48;;;;;;;11.33;9.10;;;;;;;0.18;83.19;99924.45;1704883;82;21220;-62
2020/12/01 21:02:18;;;;;;;10.03;8.23;;;;;;;0.17;83.18;99918.37;1723526;82;21714;-61
2020/12/01 21:04:46;;;;;;;9.60;8.43;;;;;;;0.17;83.22;99920.08;1663279;84;21247;-62